sensor_id;sensor_type;location;lat;lon;timestamp;pressure;altitude;pressure_sealevel;temperature;humidity
63700;BME280;49845;47.130;142.766;2022-10-01T00:00:55;99954.22;;;19.45;72.31
63700;BME280;49845;47.130;142.766;2022-10-01T00:03:49;99980.66;;;19.76;72.49
63700;BME280;49845;47.130;142.766;2022-10-01T00:06:36;99978.03;;;19.91;72.48
63700;BME280;49845;47.130;142.766;2022-10-01T00:09:14;99954.13;;;19.76;71.95
63700;BME280;49845;47.130;142.766;2022-10-01T00:11:59;99991.69;;;19.99;71.30
63700;BME280;49845;47.130;142.766;2022-10-01T00:15:06;99991.53;;;20.16;70.32
63700;BME280;49845;47.130;142.766;2022-10-01T00:17:44;99983.88;;;20.26;69.87
63700;BME280;49845;47.130;142.766;2022-10-01T00:20:38;99987.78;;;20.35;69.75
63700;BME280;49845;47.130;142.766;2022-10-01T00:23:21;99990.41;;;20.49;68.70
63700;BME280;49845;47.130;142.766;2022-10-01T00:26:17;99995.56;;;20.66;67.67
63700;BME280;49845;47.130;142.766;2022-10-01T00:29:11;100006.72;;;20.72;66.38
63700;BME280;49845;47.130;142.766;2022-10-01T00:31:53;99969.13;;;20.65;67.02
63700;BME280;49845;47.130;142.766;2022-10-01T00:34:53;100013.56;;;20.76;64.95
63700;BME280;49845;47.130;142.766;2022-10-01T00:37:31;100018.78;;;20.63;65.48
63700;BME280;49845;47.130;142.766;2022-10-01T00:40:25;100013.16;;;20.53;65.35
63700;BME280;49845;47.130;142.766;2022-10-01T00:43:21;100012.97;;;20.28;64.81
63700;BME280;49845;47.130;142.766;2022-10-01T00:46:14;100009.25;;;20.16;65.32
63700;BME280;49845;47.130;142.766;2022-10-01T00:48:58;100010.47;;;20.10;65.51
63700;BME280;49845;47.130;142.766;2022-10-01T00:51:46;100009.31;;;20.00;65.64
63700;BME280;49845;47.130;142.766;2022-10-01T00:54:27;100009.50;;;19.97;64.44
63700;BME280;49845;47.130;142.766;2022-10-01T00:57:21;100003.41;;;19.80;64.95
63700;BME280;49845;47.130;142.766;2022-10-01T01:00:15;99978.09;;;19.59;64.64
63700;BME280;49845;47.130;142.766;2022-10-01T01:03:02;100013.63;;;19.87;64.52
63700;BME280;49845;47.130;142.766;2022-10-01T01:05:49;100014.19;;;19.77;64.35
63700;BME280;49845;47.130;142.766;2022-10-01T01:08:35;100009.47;;;19.82;64.94
63700;BME280;49845;47.130;142.766;2022-10-01T01:11:19;99991.94;;;19.80;63.43
63700;BME280;49845;47.130;142.766;2022-10-01T01:14:23;100017.22;;;19.86;63.90
63700;BME280;49845;47.130;142.766;2022-10-01T01:17:16;99991.88;;;19.96;63.76
63700;BME280;49845;47.130;142.766;2022-10-01T01:23:55;99957.56;;;19.78;61.88
63700;BME280;49845;47.130;142.766;2022-10-01T01:26:48;99990.44;;;19.90;61.44
63700;BME280;49845;47.130;142.766;2022-10-01T01:29:31;99999.47;;;19.72;61.82
63700;BME280;49845;47.130;142.766;2022-10-01T01:32:22;100049.28;;;19.97;62.45
63700;BME280;49845;47.130;142.766;2022-10-01T01:35:08;100071.56;;;19.78;62.71
63700;BME280;49845;47.130;142.766;2022-10-01T01:37:50;100051.16;;;19.17;63.30
63700;BME280;49845;47.130;142.766;2022-10-01T01:40:34;100152.84;;;19.30;64.68
63700;BME280;49845;47.130;142.766;2022-10-01T01:43:46;100176.13;;;19.08;65.80
63700;BME280;49845;47.130;142.766;2022-10-01T01:46:32;100178.00;;;18.88;66.06
63700;BME280;49845;47.130;142.766;2022-10-01T01:49:12;100175.09;;;18.77;66.77
63700;BME280;49845;47.130;142.766;2022-10-01T01:51:55;100161.50;;;18.66;67.32
63700;BME280;49845;47.130;142.766;2022-10-01T01:54:37;100181.28;;;18.59;67.88
63700;BME280;49845;47.130;142.766;2022-10-01T01:57:16;100164.00;;;18.51;68.07
63700;BME280;49845;47.130;142.766;2022-10-01T01:59:54;100155.13;;;18.52;70.95
63700;BME280;49845;47.130;142.766;2022-10-01T02:02:52;100131.16;;;18.38;72.31
63700;BME280;49845;47.130;142.766;2022-10-01T02:05:45;100109.53;;;18.13;72.54
63700;BME280;49845;47.130;142.766;2022-10-01T02:08:50;100056.88;;;17.91;74.13
63700;BME280;49845;47.130;142.766;2022-10-01T02:11:32;100020.06;;;17.68;77.96
63700;BME280;49845;47.130;142.766;2022-10-01T02:14:36;99926.22;;;16.89;78.58
63700;BME280;49845;47.130;142.766;2022-10-01T02:17:27;100028.59;;;17.20;80.18
63700;BME280;49845;47.130;142.766;2022-10-01T02:20:22;100042.56;;;17.03;80.92
63700;BME280;49845;47.130;142.766;2022-10-01T02:23:21;100066.19;;;17.06;81.74
63700;BME280;49845;47.130;142.766;2022-10-01T02:26:15;100066.25;;;17.04;81.60
63700;BME280;49845;47.130;142.766;2022-10-01T02:29:09;100038.16;;;16.64;81.43
63700;BME280;49845;47.130;142.766;2022-10-01T02:31:56;100078.69;;;16.43;80.74
63700;BME280;49845;47.130;142.766;2022-10-01T02:34:41;100110.31;;;16.43;82.06
63700;BME280;49845;47.130;142.766;2022-10-01T02:37:43;100112.94;;;16.22;81.25
63700;BME280;49845;47.130;142.766;2022-10-01T02:40:25;100100.59;;;16.02;82.33
63700;BME280;49845;47.130;142.766;2022-10-01T02:43:17;100106.31;;;15.91;81.75
63700;BME280;49845;47.130;142.766;2022-10-01T02:46:17;100123.84;;;15.69;81.72
63700;BME280;49845;47.130;142.766;2022-10-01T02:48:58;100138.56;;;15.52;82.25
63700;BME280;49845;47.130;142.766;2022-10-01T02:51:50;100119.81;;;15.38;82.97
63700;BME280;49845;47.130;142.766;2022-10-01T02:55:06;100082.41;;;15.06;83.38
63700;BME280;49845;47.130;142.766;2022-10-01T02:57:51;100158.81;;;15.27;83.02
63700;BME280;49845;47.130;142.766;2022-10-01T03:00:53;100171.41;;;14.95;83.15
63700;BME280;49845;47.130;142.766;2022-10-01T03:03:40;100177.16;;;14.81;84.46
63700;BME280;49845;47.130;142.766;2022-10-01T03:06:27;100178.53;;;14.66;83.90
63700;BME280;49845;47.130;142.766;2022-10-01T03:09:11;100138.50;;;14.58;84.16
63700;BME280;49845;47.130;142.766;2022-10-01T03:12:11;100180.03;;;14.47;83.33
63700;BME280;49845;47.130;142.766;2022-10-01T03:14:55;100188.69;;;14.51;83.31
63700;BME280;49845;47.130;142.766;2022-10-01T03:17:49;100190.97;;;14.35;83.50
63700;BME280;49845;47.130;142.766;2022-10-01T03:20:27;100197.81;;;14.12;82.65
63700;BME280;49845;47.130;142.766;2022-10-01T03:23:14;100203.56;;;13.97;83.87
63700;BME280;49845;47.130;142.766;2022-10-01T03:26:00;100210.78;;;14.18;84.75
63700;BME280;49845;47.130;142.766;2022-10-01T03:28:55;100218.06;;;14.37;83.71
63700;BME280;49845;47.130;142.766;2022-10-01T03:31:42;100204.50;;;14.22;83.26
63700;BME280;49845;47.130;142.766;2022-10-01T03:34:20;100231.59;;;14.24;83.44
63700;BME280;49845;47.130;142.766;2022-10-01T03:36:57;100224.09;;;14.12;83.81
63700;BME280;49845;47.130;142.766;2022-10-01T03:39:34;100239.88;;;14.12;84.68
63700;BME280;49845;47.130;142.766;2022-10-01T03:42:13;100228.13;;;13.96;84.90
63700;BME280;49845;47.130;142.766;2022-10-01T03:45:00;100241.38;;;13.93;85.59
63700;BME280;49845;47.130;142.766;2022-10-01T03:47:38;100245.69;;;13.94;85.51
63700;BME280;49845;47.130;142.766;2022-10-01T03:50:23;100260.19;;;13.77;85.27
63700;BME280;49845;47.130;142.766;2022-10-01T03:53:11;100251.53;;;13.75;85.70
63700;BME280;49845;47.130;142.766;2022-10-01T03:55:50;100262.03;;;13.75;85.70
63700;BME280;49845;47.130;142.766;2022-10-01T03:58:50;100246.16;;;13.78;86.33
63700;BME280;49845;47.130;142.766;2022-10-01T04:05:08;100269.56;;;13.86;83.48
63700;BME280;49845;47.130;142.766;2022-10-01T04:08:05;100295.50;;;13.67;84.58
63700;BME280;49845;47.130;142.766;2022-10-01T04:10:39;100297.81;;;13.48;85.24
63700;BME280;49845;47.130;142.766;2022-10-01T04:13:15;100294.66;;;13.35;86.30
63700;BME280;49845;47.130;142.766;2022-10-01T04:16:16;100293.72;;;13.38;86.50
63700;BME280;49845;47.130;142.766;2022-10-01T04:18:56;100299.97;;;13.32;86.16
63700;BME280;49845;47.130;142.766;2022-10-01T04:21:50;100310.47;;;13.32;86.62
63700;BME280;49845;47.130;142.766;2022-10-01T04:24:32;100311.50;;;13.25;86.68
63700;BME280;49845;47.130;142.766;2022-10-01T04:27:29;100314.38;;;13.16;85.96
63700;BME280;49845;47.130;142.766;2022-10-01T04:30:09;100321.97;;;12.92;86.03
63700;BME280;49845;47.130;142.766;2022-10-01T04:33:02;100312.22;;;12.98;87.20
63700;BME280;49845;47.130;142.766;2022-10-01T04:36:10;100304.28;;;13.01;86.72
63700;BME280;49845;47.130;142.766;2022-10-01T04:39:11;100300.25;;;13.20;86.63
63700;BME280;49845;47.130;142.766;2022-10-01T04:41:50;100294.13;;;13.21;85.00
63700;BME280;49845;47.130;142.766;2022-10-01T04:44:29;100310.19;;;13.09;84.73
63700;BME280;49845;47.130;142.766;2022-10-01T04:47:08;100308.06;;;12.90;85.26
63700;BME280;49845;47.130;142.766;2022-10-01T04:49:53;100318.88;;;12.75;86.27
63700;BME280;49845;47.130;142.766;2022-10-01T04:52:32;100329.81;;;12.57;87.23
63700;BME280;49845;47.130;142.766;2022-10-01T04:55:14;100331.06;;;12.40;87.42
63700;BME280;49845;47.130;142.766;2022-10-01T04:58:04;100347.69;;;12.39;87.71
63700;BME280;49845;47.130;142.766;2022-10-01T05:00:46;100333.97;;;12.28;87.88
63700;BME280;49845;47.130;142.766;2022-10-01T05:03:34;100343.00;;;12.15;88.62
63700;BME280;49845;47.130;142.766;2022-10-01T05:06:07;100354.75;;;11.95;88.64
63700;BME280;49845;47.130;142.766;2022-10-01T05:08:46;100359.31;;;11.84;88.79
63700;BME280;49845;47.130;142.766;2022-10-01T05:11:32;100364.03;;;11.65;89.34
63700;BME280;49845;47.130;142.766;2022-10-01T05:14:10;100295.47;;;11.01;90.58
63700;BME280;49845;47.130;142.766;2022-10-01T05:16:48;100397.66;;;11.40;91.04
63700;BME280;49845;47.130;142.766;2022-10-01T05:19:26;100398.66;;;11.33;91.61
63700;BME280;49845;47.130;142.766;2022-10-01T05:22:21;100391.97;;;11.16;91.32
63700;BME280;49845;47.130;142.766;2022-10-01T05:25:00;100416.56;;;11.05;92.56
63700;BME280;49845;47.130;142.766;2022-10-01T05:28:00;100395.22;;;10.76;92.95
63700;BME280;49845;47.130;142.766;2022-10-01T05:30:48;100438.84;;;10.70;93.69
63700;BME280;49845;47.130;142.766;2022-10-01T05:33:50;100448.66;;;10.54;94.60
63700;BME280;49845;47.130;142.766;2022-10-01T05:36:30;100454.09;;;10.39;95.02
63700;BME280;49845;47.130;142.766;2022-10-01T05:39:08;100475.00;;;10.37;95.96
63700;BME280;49845;47.130;142.766;2022-10-01T05:41:53;100464.75;;;10.17;96.40
63700;BME280;49845;47.130;142.766;2022-10-01T05:44:40;100477.94;;;10.05;97.40
63700;BME280;49845;47.130;142.766;2022-10-01T05:47:18;100473.63;;;10.04;97.49
63700;BME280;49845;47.130;142.766;2022-10-01T05:49:57;100489.28;;;10.04;97.44
63700;BME280;49845;47.130;142.766;2022-10-01T05:52:45;100494.59;;;9.94;97.58
63700;BME280;49845;47.130;142.766;2022-10-01T05:55:21;100473.84;;;9.79;97.63
63700;BME280;49845;47.130;142.766;2022-10-01T05:58:21;100502.53;;;9.84;97.79
63700;BME280;49845;47.130;142.766;2022-10-01T06:01:18;100504.38;;;9.69;98.14
63700;BME280;49845;47.130;142.766;2022-10-01T06:04:08;100510.53;;;9.61;98.69
63700;BME280;49845;47.130;142.766;2022-10-01T06:07:01;100534.94;;;9.57;98.96
63700;BME280;49845;47.130;142.766;2022-10-01T06:09:54;100523.75;;;9.42;99.34
63700;BME280;49845;47.130;142.766;2022-10-01T06:12:32;100541.09;;;9.46;99.38
63700;BME280;49845;47.130;142.766;2022-10-01T06:15:14;100552.38;;;9.52;99.64
63700;BME280;49845;47.130;142.766;2022-10-01T06:18:01;100559.34;;;9.51;99.73
63700;BME280;49845;47.130;142.766;2022-10-01T06:20:48;100559.31;;;9.53;100.00
63700;BME280;49845;47.130;142.766;2022-10-01T06:23:38;100549.78;;;9.45;100.00
63700;BME280;49845;47.130;142.766;2022-10-01T06:26:59;100568.91;;;9.49;99.43
63700;BME280;49845;47.130;142.766;2022-10-01T06:29:36;100578.50;;;9.48;99.53
63700;BME280;49845;47.130;142.766;2022-10-01T06:32:22;100573.28;;;9.45;99.62
63700;BME280;49845;47.130;142.766;2022-10-01T06:35:28;100575.91;;;9.44;100.00
63700;BME280;49845;47.130;142.766;2022-10-01T06:38:12;100536.94;;;9.18;99.94
63700;BME280;49845;47.130;142.766;2022-10-01T06:40:51;100588.91;;;9.48;100.00
63700;BME280;49845;47.130;142.766;2022-10-01T06:43:47;100590.63;;;9.49;100.00
63700;BME280;49845;47.130;142.766;2022-10-01T06:46:37;100588.91;;;9.48;100.00
63700;BME280;49845;47.130;142.766;2022-10-01T06:49:15;100597.56;;;9.50;100.00
63700;BME280;49845;47.130;142.766;2022-10-01T06:52:07;100610.63;;;9.50;99.85
63700;BME280;49845;47.130;142.766;2022-10-01T06:55:10;100620.22;;;9.48;99.74
63700;BME280;49845;47.130;142.766;2022-10-01T06:57:54;100563.06;;;9.12;100.00
63700;BME280;49845;47.130;142.766;2022-10-01T07:00:39;100612.41;;;9.41;100.00
63700;BME280;49845;47.130;142.766;2022-10-01T07:03:34;100629.78;;;9.45;99.62
63700;BME280;49845;47.130;142.766;2022-10-01T07:06:20;100636.75;;;9.44;99.81
63700;BME280;49845;47.130;142.766;2022-10-01T07:08:59;100625.50;;;9.33;99.55
63700;BME280;49845;47.130;142.766;2022-10-01T07:11:37;100637.63;;;9.46;99.87
63700;BME280;49845;47.130;142.766;2022-10-01T07:14:24;100638.47;;;9.52;99.90
63700;BME280;49845;47.130;142.766;2022-10-01T07:17:17;100647.13;;;9.55;99.63
63700;BME280;49845;47.130;142.766;2022-10-01T07:19:54;100654.94;;;9.57;99.76
63700;BME280;49845;47.130;142.766;2022-10-01T07:22:58;100649.75;;;9.50;99.14
63700;BME280;49845;47.130;142.766;2022-10-01T07:25:42;100646.31;;;9.45;99.59
63700;BME280;49845;47.130;142.766;2022-10-01T07:28:19;100661.97;;;9.41;99.64
63700;BME280;49845;47.130;142.766;2022-10-01T07:31:02;100663.72;;;9.40;99.91
63700;BME280;49845;47.130;142.766;2022-10-01T07:33:56;100672.44;;;9.33;99.50
63700;BME280;49845;47.130;142.766;2022-10-01T07:36:43;100695.91;;;9.39;99.68
63700;BME280;49845;47.130;142.766;2022-10-01T07:39:40;100701.13;;;9.35;99.63
63700;BME280;49845;47.130;142.766;2022-10-01T07:42:32;100705.50;;;9.31;99.75
63700;BME280;49845;47.130;142.766;2022-10-01T07:45:18;100696.88;;;9.17;100.00
63700;BME280;49845;47.130;142.766;2022-10-01T07:48:04;100644.88;;;8.77;100.00
63700;BME280;49845;47.130;142.766;2022-10-01T07:50:44;100722.97;;;9.14;100.00
63700;BME280;49845;47.130;142.766;2022-10-01T07:53:29;100727.25;;;9.21;100.00
63700;BME280;49845;47.130;142.766;2022-10-01T07:56:09;100744.63;;;9.23;100.00
63700;BME280;49845;47.130;142.766;2022-10-01T07:59:03;100738.59;;;9.14;100.00
63700;BME280;49845;47.130;142.766;2022-10-01T08:01:57;100755.94;;;9.21;100.00
63700;BME280;49845;47.130;142.766;2022-10-01T08:04:37;100772.47;;;9.15;100.00
63700;BME280;49845;47.130;142.766;2022-10-01T08:07:30;100773.34;;;9.13;100.00
63700;BME280;49845;47.130;142.766;2022-10-01T08:10:23;100774.22;;;9.07;100.00
63700;BME280;49845;47.130;142.766;2022-10-01T08:13:08;100778.56;;;9.03;100.00
63700;BME280;49845;47.130;142.766;2022-10-01T08:15:55;100792.47;;;9.02;100.00
63700;BME280;49845;47.130;142.766;2022-10-01T08:18:41;100791.63;;;9.02;100.00
63700;BME280;49845;47.130;142.766;2022-10-01T08:21:29;100808.13;;;9.02;100.00
63700;BME280;49845;47.130;142.766;2022-10-01T08:24:19;100815.94;;;8.99;100.00
63700;BME280;49845;47.130;142.766;2022-10-01T08:26:55;100822.91;;;9.00;100.00
63700;BME280;49845;47.130;142.766;2022-10-01T08:29:42;100847.22;;;9.05;100.00
63700;BME280;49845;47.130;142.766;2022-10-01T08:32:26;100839.41;;;8.99;100.00
63700;BME280;49845;47.130;142.766;2022-10-01T08:35:13;100848.09;;;8.95;100.00
63700;BME280;49845;47.130;142.766;2022-10-01T08:37:51;100851.59;;;8.94;100.00
63700;BME280;49845;47.130;142.766;2022-10-01T08:40:33;100827.28;;;8.74;100.00
63700;BME280;49845;47.130;142.766;2022-10-01T08:43:26;100860.25;;;8.87;100.00
63700;BME280;49845;47.130;142.766;2022-10-01T08:46:04;100866.34;;;8.95;100.00
63700;BME280;49845;47.130;142.766;2022-10-01T08:48:59;100858.50;;;8.83;100.00
63700;BME280;49845;47.130;142.766;2022-10-01T08:51:56;100874.16;;;8.92;100.00
63700;BME280;49845;47.130;142.766;2022-10-01T08:55:12;100855.91;;;8.71;100.00
63700;BME280;49845;47.130;142.766;2022-10-01T08:57:59;100808.13;;;8.41;100.00
63700;BME280;49845;47.130;142.766;2022-10-01T09:00:50;100890.69;;;8.87;100.00
63700;BME280;49845;47.130;142.766;2022-10-01T09:03:31;100895.00;;;8.86;100.00
63700;BME280;49845;47.130;142.766;2022-10-01T09:06:21;100888.94;;;8.79;100.00
63700;BME280;49845;47.130;142.766;2022-10-01T09:09:16;100891.53;;;8.78;100.00
63700;BME280;49845;47.130;142.766;2022-10-01T09:12:24;100903.69;;;8.73;100.00
63700;BME280;49845;47.130;142.766;2022-10-01T09:15:14;100914.09;;;8.67;100.00
63700;BME280;49845;47.130;142.766;2022-10-01T09:18:11;100921.03;;;8.64;100.00
63700;BME280;49845;47.130;142.766;2022-10-01T09:20:59;100933.19;;;8.66;100.00
63700;BME280;49845;47.130;142.766;2022-10-01T09:23:57;100940.13;;;8.63;100.00
63700;BME280;49845;47.130;142.766;2022-10-01T09:26:46;100926.19;;;8.46;100.00
63700;BME280;49845;47.130;142.766;2022-10-01T09:29:44;100958.34;;;8.54;100.00
63700;BME280;49845;47.130;142.766;2022-10-01T09:32:35;100957.47;;;8.55;100.00
63700;BME280;49845;47.130;142.766;2022-10-01T09:35:42;100962.69;;;8.58;100.00
63700;BME280;49845;47.130;142.766;2022-10-01T09:38:26;100951.41;;;8.61;100.00
63700;BME280;49845;47.130;142.766;2022-10-01T09:41:20;100945.34;;;8.54;100.00
63700;BME280;49845;47.130;142.766;2022-10-01T09:43:57;100960.97;;;8.51;100.00
63700;BME280;49845;47.130;142.766;2022-10-01T09:46:39;100978.28;;;8.45;100.00
63700;BME280;49845;47.130;142.766;2022-10-01T09:49:26;100973.06;;;8.40;100.00
63700;BME280;49845;47.130;142.766;2022-10-01T09:52:37;100989.56;;;8.42;100.00
63700;BME280;49845;47.130;142.766;2022-10-01T09:55:28;100904.25;;;7.93;100.00
63700;BME280;49845;47.130;142.766;2022-10-01T09:58:11;100978.25;;;8.40;100.00
63700;BME280;49845;47.130;142.766;2022-10-01T10:00:51;101002.59;;;8.48;100.00
63700;BME280;49845;47.130;142.766;2022-10-01T10:04:02;101005.19;;;8.48;100.00
63700;BME280;49845;47.130;142.766;2022-10-01T10:06:58;101010.41;;;8.48;100.00
63700;BME280;49845;47.130;142.766;2022-10-01T10:09:40;100939.84;;;7.93;100.00
63700;BME280;49845;47.130;142.766;2022-10-01T10:12:26;100993.81;;;8.28;100.00
63700;BME280;49845;47.130;142.766;2022-10-01T10:15:21;101039.03;;;8.42;100.00
63700;BME280;49845;47.130;142.766;2022-10-01T10:18:15;101008.56;;;8.27;100.00
63700;BME280;49845;47.130;142.766;2022-10-01T10:21:15;101032.97;;;8.43;100.00
63700;BME280;49845;47.130;142.766;2022-10-01T10:23:57;100958.94;;;7.95;100.00
63700;BME280;49845;47.130;142.766;2022-10-01T10:26:51;101018.09;;;8.28;100.00
63700;BME280;49845;47.130;142.766;2022-10-01T10:29:43;101045.09;;;8.39;100.00
63700;BME280;49845;47.130;142.766;2022-10-01T10:32:41;101058.09;;;8.38;100.00
63700;BME280;49845;47.130;142.766;2022-10-01T10:35:35;101061.59;;;8.40;100.00
63700;BME280;49845;47.130;142.766;2022-10-01T10:38:39;101069.44;;;8.45;100.00
63700;BME280;49845;47.130;142.766;2022-10-01T10:41:23;101059.78;;;8.33;100.00
63700;BME280;49845;47.130;142.766;2022-10-01T10:44:16;101082.44;;;8.46;100.00
63700;BME280;49845;47.130;142.766;2022-10-01T10:47:10;101079.75;;;8.35;100.00
63700;BME280;49845;47.130;142.766;2022-10-01T10:51:17;101099.75;;;8.38;100.00
63700;BME280;49845;47.130;142.766;2022-10-01T10:53:54;101099.75;;;8.38;100.00
63700;BME280;49845;47.130;142.766;2022-10-01T10:56:52;101063.19;;;8.16;100.00
63700;BME280;49845;47.130;142.766;2022-10-01T10:59:33;101109.28;;;8.37;100.00
63700;BME280;49845;47.130;142.766;2022-10-01T11:02:25;101109.28;;;8.31;100.00
63700;BME280;49845;47.130;142.766;2022-10-01T11:05:25;101084.81;;;8.09;100.00
63700;BME280;49845;47.130;142.766;2022-10-01T11:08:12;101072.63;;;8.02;100.00
63700;BME280;49845;47.130;142.766;2022-10-01T11:11:09;101114.34;;;8.16;100.00
63700;BME280;49845;47.130;142.766;2022-10-01T11:14:08;101130.03;;;8.22;100.00
63700;BME280;49845;47.130;142.766;2022-10-01T11:17:10;101049.00;;;7.76;100.00
63700;BME280;49845;47.130;142.766;2022-10-01T11:20:31;101123.06;;;8.19;100.00
63700;BME280;49845;47.130;142.766;2022-10-01T11:23:44;101135.19;;;8.16;100.00
63700;BME280;49845;47.130;142.766;2022-10-01T11:26:47;101142.09;;;8.12;100.00
63700;BME280;49845;47.130;142.766;2022-10-01T11:29:42;101144.72;;;8.12;100.00
63700;BME280;49845;47.130;142.766;2022-10-01T11:32:29;101143.78;;;8.04;100.00
63700;BME280;49845;47.130;142.766;2022-10-01T11:35:31;101142.09;;;8.11;100.00
63700;BME280;49845;47.130;142.766;2022-10-01T11:38:40;101146.41;;;8.10;100.00
63700;BME280;49845;47.130;142.766;2022-10-01T11:41:37;101117.66;;;7.92;100.00
63700;BME280;49845;47.130;142.766;2022-10-01T11:44:31;101101.06;;;7.77;100.00
63700;BME280;49845;47.130;142.766;2022-10-01T11:47:45;101151.53;;;8.01;100.00
63700;BME280;49845;47.130;142.766;2022-10-01T11:50:27;101135.84;;;7.89;100.00
63700;BME280;49845;47.130;142.766;2022-10-01T11:53:19;101137.50;;;7.84;100.00
63700;BME280;49845;47.130;142.766;2022-10-01T11:56:09;101139.28;;;7.85;100.00
63700;BME280;49845;47.130;142.766;2022-10-01T11:59:07;101133.97;;;7.75;100.00
63700;BME280;49845;47.130;142.766;2022-10-01T12:02:33;101160.19;;;7.94;100.00
63700;BME280;49845;47.130;142.766;2022-10-01T12:05:55;101160.13;;;7.91;100.00
63700;BME280;49845;47.130;142.766;2022-10-01T12:09:03;101170.53;;;7.88;100.00
63700;BME280;49845;47.130;142.766;2022-10-01T12:11:59;101179.13;;;7.81;100.00
63700;BME280;49845;47.130;142.766;2022-10-01T12:14:51;101136.50;;;7.65;100.00
63700;BME280;49845;47.130;142.766;2022-10-01T12:17:43;101193.94;;;7.88;100.00
63700;BME280;49845;47.130;142.766;2022-10-01T12:20:26;101200.03;;;7.90;100.00
63700;BME280;49845;47.130;142.766;2022-10-01T12:23:25;101187.91;;;7.90;100.00
63700;BME280;49845;47.130;142.766;2022-10-01T12:26:53;101210.50;;;7.96;100.00
63700;BME280;49845;47.130;142.766;2022-10-01T12:30:06;101203.41;;;7.80;100.00
63700;BME280;49845;47.130;142.766;2022-10-01T12:33:19;101225.97;;;7.84;100.00
63700;BME280;49845;47.130;142.766;2022-10-01T12:37:06;101227.63;;;7.75;100.00
63700;BME280;49845;47.130;142.766;2022-10-01T12:40:30;101222.31;;;7.63;100.00
63700;BME280;49845;47.130;142.766;2022-10-01T12:44:38;101255.38;;;7.73;100.00
63700;BME280;49845;47.130;142.766;2022-10-01T12:47:45;101257.13;;;7.74;100.00
63700;BME280;49845;47.130;142.766;2022-10-01T12:50:53;101263.16;;;7.73;100.00
63700;BME280;49845;47.130;142.766;2022-10-01T12:55:00;101262.31;;;7.71;100.00
63700;BME280;49845;47.130;142.766;2022-10-01T12:58:03;101279.69;;;7.75;100.00
63700;BME280;49845;47.130;142.766;2022-10-01T13:01:24;101267.44;;;7.68;100.00
63700;BME280;49845;47.130;142.766;2022-10-01T13:07:55;101214.97;;;7.28;100.00
63700;BME280;49845;47.130;142.766;2022-10-01T13:11:29;101296.16;;;7.74;100.00
63700;BME280;49845;47.130;142.766;2022-10-01T13:14:37;101295.31;;;7.78;100.00
63700;BME280;49845;47.130;142.766;2022-10-01T13:17:26;101300.56;;;7.82;100.00
63700;BME280;49845;47.130;142.766;2022-10-01T13:20:27;101307.50;;;7.83;100.00
63700;BME280;49845;47.130;142.766;2022-10-01T13:23:20;101304.97;;;7.87;100.00
63700;BME280;49845;47.130;142.766;2022-10-01T13:26:10;101304.94;;;7.84;100.00
63700;BME280;49845;47.130;142.766;2022-10-01T13:28:59;101310.97;;;7.82;100.00
63700;BME280;49845;47.130;142.766;2022-10-01T13:31:54;101307.50;;;7.83;100.00
63700;BME280;49845;47.130;142.766;2022-10-01T13:34:50;101312.75;;;7.86;100.00
63700;BME280;49845;47.130;142.766;2022-10-01T13:37:38;101323.22;;;7.89;100.00
63700;BME280;49845;47.130;142.766;2022-10-01T13:40:29;101320.59;;;7.87;100.00
63700;BME280;49845;47.130;142.766;2022-10-01T13:43:20;101248.09;;;7.45;100.00
63700;BME280;49845;47.130;142.766;2022-10-01T13:46:15;101320.56;;;7.86;100.00
63700;BME280;49845;47.130;142.766;2022-10-01T13:48:53;101323.16;;;7.86;100.00
63700;BME280;49845;47.130;142.766;2022-10-01T13:51:46;101318.81;;;7.85;100.00
63700;BME280;49845;47.130;142.766;2022-10-01T13:54:32;101319.66;;;7.84;100.00
63700;BME280;49845;47.130;142.766;2022-10-01T13:57:27;101242.72;;;7.29;100.00
63700;BME280;49845;47.130;142.766;2022-10-01T14:00:27;101327.47;;;7.82;100.00
63700;BME280;49845;47.130;142.766;2022-10-01T14:06:28;101337.00;;;7.82;100.00
63700;BME280;49845;47.130;142.766;2022-10-01T14:09:25;101330.81;;;7.73;100.00
63700;BME280;49845;47.130;142.766;2022-10-01T14:12:18;101340.34;;;7.71;100.00
63700;BME280;49845;47.130;142.766;2022-10-01T14:15:16;101347.25;;;7.69;100.00
63700;BME280;49845;47.130;142.766;2022-10-01T14:18:15;101343.66;;;7.61;100.00
63700;BME280;49845;47.130;142.766;2022-10-01T14:21:07;101350.63;;;7.62;100.00
63700;BME280;49845;47.130;142.766;2022-10-01T14:24:08;101340.22;;;7.62;100.00
63700;BME280;49845;47.130;142.766;2022-10-01T14:27:27;101332.22;;;7.47;100.00
63700;BME280;49845;47.130;142.766;2022-10-01T14:30:29;101331.22;;;7.39;100.00
63700;BME280;49845;47.130;142.766;2022-10-01T14:33:17;101367.75;;;7.48;100.00
63700;BME280;49845;47.130;142.766;2022-10-01T14:35:59;101374.63;;;7.43;100.00
63700;BME280;49845;47.130;142.766;2022-10-01T14:38:41;101370.22;;;7.37;100.00
63700;BME280;49845;47.130;142.766;2022-10-01T14:41:32;101371.13;;;7.39;100.00
63700;BME280;49845;47.130;142.766;2022-10-01T14:44:36;101379.75;;;7.37;100.00
63700;BME280;49845;47.130;142.766;2022-10-01T14:47:26;101373.66;;;7.34;100.00
63700;BME280;49845;47.130;142.766;2022-10-01T14:50:17;101372.69;;;7.26;100.00